Terminal Aerodrome Forecast
Issued by NWS

Home | Current Version | Previous Version | Text Only | Print | Product List | Glossary On
Versions: 1 2 3 4 5 6 7 8 9 10 11 12
000
FTAK31 PAJN 262300 RRA
TAFAWG
TAF
PAWG 262342Z 2700/2724 30008KT P6SM -SHRA SCT025 BKN035 OVC040
      TEMPO 2700/2702 VRB05KT 5SM -SHRA BR SCT015 OVC030
     FM270200 00000KT P6SM VCSH BKN040
     FM270600 VRB03KT P6SM -SHRA SCT025 OVC040
     FM271100 VRB03KT P6SM VCSH SCT025 OVC045
     FM271500 VRB03KT P6SM FEW005 BKN045
     FM272000 23005KT P6SM BKN045
      AMD LTD TO CLD VIS AND WIND 2706/2715=

USA.gov is the U.S. government's official web portal to all federal, state and local government web resources and services.